Time;durP1;ratioP1;P1;durP2;ratioP2;P2;SDS_P1;SDS_P2;PMS_P1;PMS_P2;Temp;Humidity;BMP_temperature;BMP_pressure;BME280_temperature;BME280_humidity;BME280_pressure;Samples;Min_cycle;Max_cycle;Signal;HPM_P1;HPM_P2
2023/11/01 00:00:21;;;;;;;3.20;1.30;;;12.90;99.90;;;;;;4126118;28;20038;-70
2023/11/01 00:02:22;;;;;;;6.72;2.22;;;12.90;99.90;;;;;;4126114;28;20474;-70
2023/11/01 00:04:22;;;;;;;5.22;1.77;;;13.00;99.90;;;;;;4127513;28;20447;-70
2023/11/01 00:06:23;;;;;;;5.30;1.73;;;12.90;99.90;;;;;;4125016;28;20171;-70
2023/11/01 00:08:24;;;;;;;6.60;2.03;;;12.90;99.90;;;;;;4127241;28;20037;-70
2023/11/01 00:10:24;;;;;;;4.65;2.00;;;12.90;99.90;;;;;;4126746;28;20050;-70
2023/11/01 00:12:25;;;;;;;4.95;1.77;;;12.90;99.90;;;;;;4127505;28;20034;-70
2023/11/01 00:14:26;;;;;;;3.85;1.60;;;12.90;99.90;;;;;;4126192;28;20533;-70
2023/11/01 00:16:27;;;;;;;3.17;1.45;;;13.00;99.90;;;;;;4126016;28;20473;-71
2023/11/01 00:18:27;;;;;;;5.35;1.73;;;13.00;99.90;;;;;;4126590;28;20030;-70
2023/11/01 00:20:28;;;;;;;5.80;2.00;;;13.00;99.90;;;;;;4126271;28;20038;-70
2023/11/01 00:22:28;;;;;;;5.57;1.63;;;13.00;99.90;;;;;;4110176;28;20047;-70
2023/11/01 00:24:29;;;;;;;6.68;1.90;;;13.00;99.90;;;;;;4110201;28;20496;-70
2023/11/01 00:26:29;;;;;;;3.88;1.52;;;12.90;99.90;;;;;;4125448;28;20066;-70
2023/11/01 00:28:30;;;;;;;4.85;1.73;;;13.00;99.90;;;;;;4126732;28;20102;-70
2023/11/01 00:30:31;;;;;;;6.07;1.98;;;13.00;99.90;;;;;;4126563;28;20450;-70
2023/11/01 00:32:31;;;;;;;4.15;1.88;;;13.00;99.90;;;;;;4117112;28;20031;-70
2023/11/01 00:34:32;;;;;;;6.20;2.00;;;13.00;99.90;;;;;;4127639;28;20038;-70
2023/11/01 00:36:32;;;;;;;8.10;2.17;;;13.00;99.90;;;;;;4125099;28;20034;-65
2023/11/01 00:38:37;;;;;;;6.77;2.27;;;13.00;99.90;;;;;;4126321;28;20065;-65
2023/11/01 00:40:38;;;;;;;7.22;2.25;;;13.00;99.90;;;;;;4129239;28;20070;-65
2023/11/01 00:42:38;;;;;;;7.28;1.90;;;13.00;99.90;;;;;;4127582;28;20368;-65
2023/11/01 00:44:39;;;;;;;6.30;2.13;;;12.90;99.90;;;;;;4127234;28;20071;-66
2023/11/01 00:46:39;;;;;;;4.28;1.52;;;12.90;99.90;;;;;;4125745;28;20125;-66
2023/11/01 00:48:40;;;;;;;5.90;2.05;;;12.90;99.90;;;;;;4126087;28;20414;-66
2023/11/01 00:50:41;;;;;;;3.90;1.50;;;12.90;99.90;;;;;;4126169;28;20504;-66
2023/11/01 00:52:41;;;;;;;6.63;1.65;;;12.90;99.90;;;;;;4127271;28;20046;-66
2023/11/01 00:54:42;;;;;;;2.78;1.25;;;12.90;99.90;;;;;;4126477;28;20085;-66
2023/11/01 00:56:42;;;;;;;4.22;1.60;;;12.90;99.90;;;;;;4125088;28;20060;-66
2023/11/01 00:58:43;;;;;;;3.63;1.33;;;12.90;99.90;;;;;;4127020;28;20035;-66
2023/11/01 01:00:44;;;;;;;2.92;1.30;;;12.90;99.90;;;;;;4126147;28;20442;-65
2023/11/01 01:02:44;;;;;;;3.72;1.23;;;12.90;99.90;;;;;;4127495;28;20066;-65
2023/11/01 01:04:46;;;;;;;4.30;1.30;;;12.90;99.90;;;;;;4132985;28;20050;-65
2023/11/01 01:06:47;;;;;;;7.30;1.65;;;12.90;99.90;;;;;;4124869;28;20046;-65
2023/11/01 01:08:47;;;;;;;3.00;1.35;;;12.90;99.90;;;;;;4125700;28;20060;-65
2023/11/01 01:10:48;;;;;;;4.78;1.50;;;12.90;99.90;;;;;;4125556;28;20054;-65
2023/11/01 01:12:49;;;;;;;3.30;1.52;;;12.90;99.90;;;;;;4126595;28;20454;-65
2023/11/01 01:14:49;;;;;;;4.72;1.77;;;12.90;99.90;;;;;;4126717;28;20042;-65
2023/11/01 01:16:50;;;;;;;5.85;1.98;;;12.90;99.90;;;;;;4124296;28;20117;-65
2023/11/01 01:18:51;;;;;;;6.00;1.40;;;12.90;99.90;;;;;;4119469;28;20423;-65
2023/11/01 01:20:51;;;;;;;4.45;1.48;;;12.90;99.90;;;;;;4126103;28;20049;-65
2023/11/01 01:22:52;;;;;;;5.07;1.45;;;12.90;99.90;;;;;;4126042;28;20455;-65
2023/11/01 01:24:52;;;;;;;4.95;1.58;;;12.90;99.90;;;;;;4125836;28;20116;-65
2023/11/01 01:26:53;;;;;;;3.75;1.30;;;12.90;99.90;;;;;;4122972;28;20042;-65
2023/11/01 01:28:54;;;;;;;3.25;1.15;;;12.90;99.90;;;;;;4125412;28;20038;-66
2023/11/01 01:30:54;;;;;;;4.07;1.33;;;12.90;99.90;;;;;;4125238;28;20129;-65
2023/11/01 01:32:55;;;;;;;2.35;1.13;;;12.90;99.90;;;;;;4126439;28;20499;-65
2023/11/01 01:34:56;;;;;;;2.53;1.10;;;12.90;99.90;;;;;;4125388;28;20065;-65
2023/11/01 01:36:56;;;;;;;6.13;1.92;;;12.90;99.90;;;;;;4124807;28;20675;-65
2023/11/01 01:38:57;;;;;;;3.40;1.45;;;12.90;99.90;;;;;;4132221;28;20092;-65
2023/11/01 01:40:57;;;;;;;5.22;1.48;;;12.90;99.90;;;;;;4126330;28;20073;-65
2023/11/01 01:43:18;;;;;;;3.78;1.17;;;12.90;99.90;;;;;;4126634;28;20053;-64
2023/11/01 01:45:20;;;;;;;4.25;1.30;;;12.90;99.90;;;;;;4112782;28;20531;-65
2023/11/01 01:47:20;;;;;;;2.88;1.02;;;12.90;99.90;;;;;;4127214;28;20088;-70
2023/11/01 01:49:21;;;;;;;4.93;1.50;;;12.90;99.90;;;;;;4126894;28;20035;-70
2023/11/01 01:51:22;;;;;;;4.10;1.05;;;12.90;99.90;;;;;;4124214;28;20061;-71
2023/11/01 01:53:23;;;;;;;4.38;1.15;;;12.90;99.90;;;;;;4125834;28;20041;-70
2023/11/01 01:55:23;;;;;;;3.95;1.55;;;12.90;99.90;;;;;;4109308;28;20206;-70
2023/11/01 01:57:25;;;;;;;1.83;1.00;;;12.90;99.90;;;;;;4126964;28;20443;-70
2023/11/01 01:59:26;;;;;;;3.25;1.42;;;12.90;99.90;;;;;;4126135;28;20031;-70
2023/11/01 02:01:28;;;;;;;4.70;1.40;;;12.90;99.90;;;;;;4116823;28;20458;-70
2023/11/01 02:03:29;;;;;;;1.88;0.90;;;12.90;99.90;;;;;;4123876;28;20398;-71
2023/11/01 02:05:30;;;;;;;4.70;1.17;;;13.00;99.90;;;;;;4124145;28;20061;-71
2023/11/01 02:07:30;;;;;;;3.78;1.00;;;12.90;99.90;;;;;;4130866;28;20097;-71
2023/11/01 02:09:31;;;;;;;2.50;1.15;;;12.90;99.90;;;;;;4133691;28;20038;-70
2023/11/01 02:11:35;;;;;;;3.65;1.10;;;12.90;99.90;;;;;;4124352;28;20362;-70
2023/11/01 02:13:35;;;;;;;3.17;1.45;;;12.90;99.90;;;;;;4125498;28;20038;-70
2023/11/01 02:15:36;;;;;;;3.47;1.23;;;12.90;99.90;;;;;;4129109;28;20443;-70
2023/11/01 02:17:36;;;;;;;1.98;0.82;;;12.90;99.90;;;;;;4129843;28;20068;-70
2023/11/01 02:19:37;;;;;;;4.95;0.93;;;12.90;99.90;;;;;;4130136;28;20502;-73
2023/11/01 02:21:38;;;;;;;4.43;1.13;;;12.90;99.90;;;;;;4129101;28;20386;-71
2023/11/01 02:23:41;;;;;;;3.38;1.23;;;12.90;99.90;;;;;;4130045;28;20037;-71
2023/11/01 02:25:43;;;;;;;3.08;1.20;;;12.80;99.90;;;;;;4112219;28;20041;-71
2023/11/01 02:27:46;;;;;;;5.95;1.35;;;12.80;99.90;;;;;;4133882;28;20560;-70
2023/11/01 02:29:47;;;;;;;;;;;12.80;99.90;;;;;;4138529;28;20061;-70
2023/11/01 02:31:50;;;;;;;2.42;1.30;;;12.80;99.90;;;;;;4146981;28;19918;-71
2023/11/01 02:33:50;;;;;;;2.30;1.00;;;12.80;99.90;;;;;;4146682;28;20402;-71
2023/11/01 02:35:51;;;;;;;4.63;1.17;;;12.90;99.90;;;;;;4144794;28;20038;-70
2023/11/01 02:37:52;;;;;;;4.00;1.55;;;12.80;99.90;;;;;;4151102;28;20450;-71
2023/11/01 02:39:53;;;;;;;3.72;1.30;;;12.80;99.90;;;;;;4148910;28;20041;-71
2023/11/01 02:41:53;;;;;;;4.88;1.80;;;12.80;99.90;;;;;;4145828;28;20037;-71
2023/11/01 02:43:54;;;;;;;4.35;1.52;;;12.70;99.90;;;;;;4146802;28;20505;-71
2023/11/01 02:45:54;;;;;;;4.95;1.67;;;12.70;99.90;;;;;;4146549;28;20114;-71
2023/11/01 02:47:55;;;;;;;2.42;1.20;;;12.70;99.90;;;;;;4147137;28;20034;-71
2023/11/01 02:49:56;;;;;;;3.95;1.17;;;12.70;99.90;;;;;;4144318;28;20038;-71
2023/11/01 02:51:56;;;;;;;2.97;1.23;;;12.70;99.90;;;;;;4142276;28;20057;-71
2023/11/01 02:53:57;;;;;;;4.47;1.52;;;12.60;99.90;;;;;;4146765;28;20096;-71
2023/11/01 02:55:58;;;;;;;2.88;1.38;;;12.70;99.90;;;;;;4147266;28;20038;-71
2023/11/01 02:57:58;;;;;;;6.22;1.60;;;12.60;99.90;;;;;;4147043;28;20116;-71
2023/11/01 03:00:00;;;;;;;5.40;1.45;;;12.60;99.90;;;;;;4155916;28;20545;-71
2023/11/01 03:02:01;;;;;;;4.75;1.15;;;12.60;99.90;;;;;;4147086;28;20038;-70
2023/11/01 03:04:01;;;;;;;2.80;1.00;;;12.60;99.90;;;;;;4147748;28;20045;-70
2023/11/01 03:06:02;;;;;;;5.13;1.30;;;12.60;99.90;;;;;;4151288;28;20049;-71
2023/11/01 03:08:03;;;;;;;9.27;1.95;;;12.60;99.90;;;;;;4151342;28;20037;-72
2023/11/01 03:10:04;;;;;;;4.15;1.27;;;12.60;99.90;;;;;;4148251;28;20046;-72
2023/11/01 03:12:05;;;;;;;6.55;1.40;;;12.60;99.90;;;;;;4145281;28;20050;-71
2023/11/01 03:14:06;;;;;;;5.47;1.50;;;12.60;99.90;;;;;;4146943;28;20034;-71
2023/11/01 03:16:07;;;;;;;4.25;1.05;;;12.50;99.90;;;;;;4149150;28;20474;-71
2023/11/01 03:18:08;;;;;;;2.92;1.10;;;12.50;99.90;;;;;;4150857;28;20042;-71
2023/11/01 03:20:10;;;;;;;3.15;0.98;;;12.50;99.90;;;;;;4152979;28;20100;-72
2023/11/01 03:22:11;;;;;;;4.32;1.10;;;12.50;99.90;;;;;;4148529;28;20066;-71
2023/11/01 03:24:12;;;;;;;5.20;1.23;;;12.50;99.90;;;;;;4154639;28;20041;-70
2023/11/01 03:26:12;;;;;;;4.78;1.25;;;12.50;99.90;;;;;;4144505;28;20289;-70
2023/11/01 03:28:13;;;;;;;4.05;0.90;;;12.50;99.90;;;;;;4147207;28;20037;-70
2023/11/01 03:30:13;;;;;;;1.67;0.90;;;12.50;99.90;;;;;;4152798;28;20052;-71
2023/11/01 03:32:14;;;;;;;3.58;1.00;;;12.50;99.90;;;;;;4145420;28;20092;-71
2023/11/01 03:34:15;;;;;;;2.60;0.60;;;12.50;99.90;;;;;;4144627;28;20120;-70
2023/11/01 03:36:15;;;;;;;2.70;1.05;;;12.50;99.90;;;;;;4143492;28;20033;-71
2023/11/01 03:38:16;;;;;;;3.10;0.88;;;12.50;99.90;;;;;;4148902;28;20458;-71
2023/11/01 03:40:16;;;;;;;3.83;0.98;;;12.50;99.90;;;;;;4143467;28;20173;-71
2023/11/01 03:42:20;;;;;;;4.63;1.00;;;12.50;99.90;;;;;;4142563;28;20045;-71
2023/11/01 03:44:21;;;;;;;3.10;0.80;;;12.50;99.90;;;;;;4144014;28;20403;-70
2023/11/01 03:46:21;;;;;;;2.85;1.00;;;12.50;99.90;;;;;;4143093;28;20103;-70
2023/11/01 03:48:22;;;;;;;2.45;0.90;;;12.40;99.90;;;;;;4152513;28;20482;-70
2023/11/01 03:50:23;;;;;;;4.63;1.38;;;12.40;99.90;;;;;;4146326;28;21338;-71
2023/11/01 03:52:23;;;;;;;5.45;1.20;;;12.40;99.90;;;;;;4144474;28;20033;-70
2023/11/01 03:54:24;;;;;;;3.92;1.00;;;12.40;99.90;;;;;;4147436;28;20034;-70
2023/11/01 03:56:25;;;;;;;5.00;1.15;;;12.30;99.90;;;;;;4137119;28;20501;-70
2023/11/01 03:58:25;;;;;;;2.40;0.65;;;12.40;99.90;;;;;;4141868;28;20061;-70
2023/11/01 04:00:26;;;;;;;4.20;1.30;;;12.40;99.90;;;;;;4143353;28;20041;-71
2023/11/01 04:02:27;;;;;;;1.88;0.68;;;12.30;99.90;;;;;;4145229;28;20034;-71
2023/11/01 04:04:28;;;;;;;3.90;1.05;;;12.40;99.90;;;;;;4136939;28;20128;-72
2023/11/01 04:06:28;;;;;;;2.20;0.95;;;12.40;99.90;;;;;;4142844;28;20038;-71
2023/11/01 04:08:29;;;;;;;4.22;1.00;;;12.40;99.90;;;;;;4152043;28;20037;-71
2023/11/01 04:10:30;;;;;;;4.28;1.23;;;12.40;99.90;;;;;;4141540;28;20049;-71
2023/11/01 04:12:30;;;;;;;1.85;0.80;;;12.40;99.90;;;;;;4143736;28;20030;-71
2023/11/01 04:14:31;;;;;;;2.83;1.08;;;12.40;99.90;;;;;;4150345;28;20041;-71
2023/11/01 04:16:32;;;;;;;3.85;1.13;;;12.40;99.90;;;;;;4142498;28;20038;-71
2023/11/01 04:18:34;;;;;;;3.72;0.90;;;12.40;99.90;;;;;;4145673;28;20116;-72
2023/11/01 04:20:35;;;;;;;4.93;1.40;;;12.40;99.90;;;;;;4164030;28;20048;-71
2023/11/01 04:22:39;;;;;;;2.83;1.00;;;12.40;99.90;;;;;;4145630;28;20038;-71
2023/11/01 04:24:40;;;;;;;4.65;1.25;;;12.40;99.90;;;;;;4148276;28;20061;-71
2023/11/01 04:26:40;;;;;;;6.75;1.38;;;12.40;99.90;;;;;;4143192;28;20042;-72
2023/11/01 04:28:41;;;;;;;3.63;1.23;;;12.40;99.90;;;;;;4150122;28;20037;-71
2023/11/01 04:30:43;;;;;;;1.83;0.98;;;12.40;99.90;;;;;;4144809;28;20042;-71
2023/11/01 04:32:44;;;;;;;3.80;1.20;;;12.40;99.90;;;;;;4142779;28;20037;-70
2023/11/01 04:34:48;;;;;;;2.92;0.52;;;12.40;99.90;;;;;;4144090;28;20038;-71
2023/11/01 04:36:49;;;;;;;3.75;1.20;;;12.40;99.90;;;;;;4142746;28;20479;-71
2023/11/01 04:38:51;;;;;;;3.67;1.05;;;12.40;99.90;;;;;;4141568;28;20133;-71
2023/11/01 04:40:53;;;;;;;3.80;1.40;;;12.40;99.90;;;;;;4142725;28;20482;-71
2023/11/01 04:42:54;;;;;;;3.25;1.02;;;12.40;99.90;;;;;;4143625;28;20048;-71
2023/11/01 04:44:56;;;;;;;3.85;1.17;;;12.40;99.90;;;;;;4144204;28;20113;-71
2023/11/01 04:46:56;;;;;;;5.95;0.90;;;12.40;99.90;;;;;;4141945;28;20038;-71
2023/11/01 04:48:57;;;;;;;2.78;0.85;;;12.40;99.90;;;;;;4148586;28;20077;-71
2023/11/01 04:50:59;;;;;;;4.72;1.00;;;12.40;99.90;;;;;;4143989;28;20536;-71
2023/11/01 04:53:00;;;;;;;1.77;0.80;;;12.50;99.90;;;;;;4140816;28;20495;-71
2023/11/01 04:55:00;;;;;;;2.30;0.90;;;12.40;99.90;;;;;;4144029;28;20048;-70
2023/11/01 04:57:01;;;;;;;2.85;0.75;;;12.50;99.90;;;;;;4144262;28;20120;-70
2023/11/01 04:59:02;;;;;;;1.13;0.63;;;12.50;99.90;;;;;;4145824;28;20042;-71
2023/11/01 05:01:05;;;;;;;2.20;0.90;;;12.50;99.90;;;;;;4147017;28;20041;-71
2023/11/01 05:03:06;;;;;;;3.45;1.15;;;12.50;99.90;;;;;;4142927;28;20056;-70
2023/11/01 05:05:08;;;;;;;3.33;1.00;;;12.50;99.90;;;;;;4143371;28;20038;-71
2023/11/01 05:07:09;;;;;;;1.87;0.77;;;12.50;99.90;;;;;;4142080;28;20038;-70
2023/11/01 05:09:11;;;;;;;5.05;1.13;;;12.60;99.90;;;;;;4146806;28;20655;-71
2023/11/01 05:11:11;;;;;;;2.17;0.85;;;12.60;99.90;;;;;;4134317;28;20177;-71
2023/11/01 05:13:13;;;;;;;2.63;0.90;;;12.60;99.90;;;;;;4143539;28;20034;-71
2023/11/01 05:15:14;;;;;;;1.80;1.13;;;12.60;99.90;;;;;;4142114;28;20417;-69
2023/11/01 05:17:14;;;;;;;3.17;0.88;;;12.70;99.90;;;;;;4146623;28;20044;-69
2023/11/01 05:19:16;;;;;;;3.13;1.02;;;12.70;99.90;;;;;;4146763;28;20128;-69
2023/11/01 05:21:16;;;;;;;3.33;1.00;;;12.70;99.90;;;;;;4146709;28;20059;-69
2023/11/01 05:23:18;;;;;;;1.52;0.82;;;12.70;99.90;;;;;;4139684;28;20091;-69
2023/11/01 05:25:19;;;;;;;2.78;0.93;;;12.70;99.90;;;;;;4141615;28;20580;-72
2023/11/01 05:27:19;;;;;;;1.52;0.90;;;12.80;99.90;;;;;;4141323;28;20132;-72
2023/11/01 05:29:20;;;;;;;3.20;1.00;;;12.80;99.90;;;;;;4144155;28;20082;-73
2023/11/01 05:31:21;;;;;;;1.50;0.93;;;12.80;99.90;;;;;;4124576;28;20066;-72
2023/11/01 05:33:21;;;;;;;4.13;0.98;;;12.80;99.90;;;;;;4125883;28;20034;-72
2023/11/01 05:35:22;;;;;;;6.35;1.20;;;12.80;99.90;;;;;;4126001;28;21052;-73
2023/11/01 05:37:22;;;;;;;4.03;1.25;;;12.80;99.90;;;;;;4125657;28;20418;-72
2023/11/01 05:39:23;;;;;;;4.30;1.02;;;12.90;99.90;;;;;;4125664;28;20038;-72
2023/11/01 05:41:24;;;;;;;6.10;1.50;;;12.90;99.90;;;;;;4125137;28;20121;-71
2023/11/01 05:43:24;;;;;;;3.33;1.00;;;12.90;99.90;;;;;;4108639;28;20395;-72
2023/11/01 05:45:25;;;;;;;5.03;1.52;;;13.00;99.90;;;;;;4109169;28;20070;-71
2023/11/01 05:47:26;;;;;;;3.97;1.30;;;13.00;99.90;;;;;;4123217;28;20049;-72
2023/11/01 05:49:26;;;;;;;5.28;1.55;;;13.00;99.90;;;;;;4122527;28;20514;-71
2023/11/01 05:51:27;;;;;;;4.93;1.25;;;12.90;99.90;;;;;;4122160;28;20038;-71
2023/11/01 05:53:27;;;;;;;4.05;1.52;;;13.00;99.90;;;;;;4123755;28;20423;-71
2023/11/01 05:55:29;;;;;;;3.33;1.08;;;13.00;99.90;;;;;;4123862;28;20038;-71
2023/11/01 05:57:30;;;;;;;3.83;1.27;;;13.00;99.90;;;;;;4126843;28;20046;-71
2023/11/01 05:59:30;;;;;;;8.70;1.85;;;13.00;99.90;;;;;;4126334;28;20511;-72
2023/11/01 06:01:31;;;;;;;9.80;1.30;;;13.00;99.90;;;;;;4125002;28;20065;-71
2023/11/01 06:03:32;;;;;;;5.75;1.52;;;13.00;99.90;;;;;;4122988;28;20038;-72
2023/11/01 06:05:35;;;;;;;4.93;1.88;;;13.00;99.90;;;;;;4126042;28;20335;-72
2023/11/01 06:07:35;;;;;;;7.93;2.05;;;13.00;99.90;;;;;;4123139;28;20050;-72
2023/11/01 06:09:36;;;;;;;4.25;1.67;;;13.00;99.90;;;;;;4125371;28;20046;-71
2023/11/01 06:11:37;;;;;;;4.20;1.40;;;13.00;99.90;;;;;;4123413;28;20038;-72
2023/11/01 06:13:38;;;;;;;3.78;0.90;;;13.00;99.90;;;;;;4109188;28;20031;-72
2023/11/01 06:15:39;;;;;;;5.10;1.70;;;13.00;99.90;;;;;;4104370;28;20576;-71
2023/11/01 06:17:39;;;;;;;3.35;1.40;;;13.00;99.90;;;;;;4124585;28;20463;-72
2023/11/01 06:19:40;;;;;;;8.10;1.60;;;13.00;99.90;;;;;;4124012;28;20070;-72
2023/11/01 06:21:40;;;;;;;7.03;1.88;;;13.00;99.90;;;;;;4119950;28;20099;-71
2023/11/01 06:23:41;;;;;;;6.05;1.45;;;13.00;99.90;;;;;;4122083;28;20117;-72
2023/11/01 06:25:42;;;;;;;5.30;1.52;;;13.00;99.90;;;;;;4123412;28;20043;-72
2023/11/01 06:27:42;;;;;;;4.97;1.42;;;13.00;99.90;;;;;;4122805;28;20076;-72
2023/11/01 06:29:43;;;;;;;6.38;1.60;;;13.00;99.90;;;;;;4122393;28;20045;-72
2023/11/01 06:31:44;;;;;;;6.30;1.33;;;13.00;99.90;;;;;;4123009;28;20038;-71
2023/11/01 06:33:45;;;;;;;6.30;1.95;;;13.00;99.90;;;;;;4100211;28;20047;-72
2023/11/01 06:35:46;;;;;;;4.43;1.48;;;13.00;99.90;;;;;;4124330;28;20034;-72
2023/11/01 06:37:48;;;;;;;7.22;1.55;;;13.00;99.90;;;;;;4124160;28;20126;-71
2023/11/01 06:39:49;;;;;;;10.00;1.77;;;13.00;99.90;;;;;;4122559;28;20120;-72
2023/11/01 06:41:49;;;;;;;4.57;1.55;;;13.00;99.90;;;;;;4123996;28;20571;-72
2023/11/01 06:43:50;;;;;;;4.90;1.70;;;12.90;99.90;;;;;;4107479;28;20528;-72
2023/11/01 06:45:50;;;;;;;5.68;1.70;;;13.00;99.90;;;;;;4123075;28;20117;-65
2023/11/01 06:47:51;;;;;;;5.45;1.70;;;13.00;99.90;;;;;;4124232;28;20041;-65
2023/11/01 06:49:52;;;;;;;6.30;1.58;;;12.90;99.90;;;;;;4121765;28;20038;-65
2023/11/01 06:51:52;;;;;;;5.30;1.38;;;13.00;99.90;;;;;;4120019;28;20038;-65
2023/11/01 06:53:53;;;;;;;7.55;1.80;;;13.00;99.90;;;;;;4107549;28;20093;-65
2023/11/01 06:55:53;;;;;;;8.75;2.15;;;13.00;99.90;;;;;;4102189;28;20115;-65
2023/11/01 06:57:54;;;;;;;4.15;1.40;;;13.00;99.90;;;;;;4121245;28;20034;-64
2023/11/01 06:59:54;;;;;;;11.05;1.85;;;13.00;99.90;;;;;;4125497;28;20046;-65
2023/11/01 07:01:55;;;;;;;7.07;1.50;;;13.00;99.90;;;;;;4126496;28;20085;-65
2023/11/01 07:03:56;;;;;;;8.10;1.85;;;13.00;99.90;;;;;;4127934;28;20030;-65
2023/11/01 07:05:56;;;;;;;9.77;2.20;;;13.00;99.90;;;;;;4127303;28;20034;-68
2023/11/01 07:07:57;;;;;;;5.50;1.55;;;13.00;99.90;;;;;;4128205;28;20031;-68
2023/11/01 07:09:58;;;;;;;5.32;1.83;;;13.00;99.90;;;;;;4127613;28;20491;-67
2023/11/01 07:11:59;;;;;;;5.43;1.60;;;13.00;99.90;;;;;;4123862;28;20030;-67
2023/11/01 07:14:00;;;;;;;8.52;1.80;;;13.00;99.90;;;;;;4126877;28;20550;-67
2023/11/01 07:16:00;;;;;;;7.07;2.15;;;13.00;99.90;;;;;;4125743;28;20030;-67
2023/11/01 07:18:01;;;;;;;4.70;1.50;;;13.00;99.90;;;;;;4126179;28;20088;-67
2023/11/01 07:20:04;;;;;;;7.60;2.28;;;13.00;99.90;;;;;;4122443;28;20046;-67
2023/11/01 07:22:05;;;;;;;8.95;1.88;;;13.00;99.90;;;;;;4109798;28;21078;-67
2023/11/01 07:24:09;;;;;;;7.80;2.00;;;13.00;99.90;;;;;;4128569;28;20046;-67
2023/11/01 07:26:10;;;;;;;9.15;1.85;;;13.00;99.90;;;;;;4124543;28;20061;-67
2023/11/01 07:28:11;;;;;;;4.63;1.67;;;13.10;99.90;;;;;;4105382;28;20035;-67
2023/11/01 07:30:11;;;;;;;4.88;1.50;;;13.10;99.90;;;;;;4123150;28;20803;-67
2023/11/01 07:32:12;;;;;;;7.75;1.15;;;13.10;99.90;;;;;;4144562;28;20034;-67
2023/11/01 07:34:13;;;;;;;5.38;1.60;;;13.10;99.90;;;;;;4144109;28;20040;-67
2023/11/01 07:36:13;;;;;;;3.28;1.00;;;13.10;99.90;;;;;;4142335;28;20494;-67
2023/11/01 07:38:14;;;;;;;7.22;1.45;;;13.10;99.90;;;;;;4146508;28;20088;-67
2023/11/01 07:40:15;;;;;;;4.30;1.30;;;13.10;99.90;;;;;;4142655;28;20113;-67
2023/11/01 07:42:15;;;;;;;5.53;1.70;;;13.20;99.90;;;;;;4141069;28;20032;-67
2023/11/01 07:44:19;;;;;;;6.32;1.52;;;13.20;99.90;;;;;;4140397;28;20104;-67
2023/11/01 07:46:19;;;;;;;5.40;1.38;;;13.20;99.90;;;;;;4152494;28;20037;-67
2023/11/01 07:48:20;;;;;;;7.68;1.63;;;13.20;99.90;;;;;;4149840;28;20049;-69
2023/11/01 07:50:21;;;;;;;5.57;1.75;;;13.20;99.90;;;;;;4142870;28;20046;-67
2023/11/01 07:52:21;;;;;;;6.78;2.28;;;13.30;99.90;;;;;;4145420;28;20038;-67
2023/11/01 07:54:22;;;;;;;4.70;1.38;;;13.30;99.90;;;;;;4143191;28;20458;-67
2023/11/01 07:56:23;;;;;;;7.00;1.23;;;13.20;99.90;;;;;;4139103;28;20038;-67
2023/11/01 07:58:23;;;;;;;8.77;2.00;;;13.30;99.90;;;;;;4153323;28;20242;-67
2023/11/01 08:00:24;;;;;;;5.55;1.50;;;13.30;99.90;;;;;;4143212;28;20149;-67
2023/11/01 08:02:25;;;;;;;6.78;1.77;;;13.30;99.90;;;;;;4148605;28;20486;-67
2023/11/01 08:04:25;;;;;;;9.75;1.73;;;13.30;99.90;;;;;;4145698;28;20029;-67
2023/11/01 08:06:26;;;;;;;6.50;1.85;;;13.40;99.90;;;;;;4143499;28;20034;-72
2023/11/01 08:08:26;;;;;;;8.48;1.67;;;13.30;99.90;;;;;;4144585;28;20048;-71
2023/11/01 08:10:27;;;;;;;5.53;1.38;;;13.40;99.90;;;;;;4143141;28;20121;-72
2023/11/01 08:12:28;;;;;;;6.97;1.88;;;13.40;99.90;;;;;;4144579;28;20032;-72
2023/11/01 08:14:28;;;;;;;4.85;1.42;;;13.40;99.90;;;;;;4144885;28;20033;-71
2023/11/01 08:16:29;;;;;;;5.90;2.13;;;13.40;99.90;;;;;;4143651;28;20065;-72
2023/11/01 08:18:31;;;;;;;9.65;2.17;;;13.40;99.90;;;;;;4144724;28;20142;-73
2023/11/01 08:20:31;;;;;;;6.47;1.80;;;13.40;99.90;;;;;;4144973;28;20046;-74
2023/11/01 08:22:32;;;;;;;8.80;2.17;;;13.40;99.90;;;;;;4141727;28;20032;-73
2023/11/01 08:24:33;;;;;;;5.35;1.60;;;13.50;99.90;;;;;;4139517;28;20026;-73
2023/11/01 08:26:33;;;;;;;4.88;1.70;;;13.50;99.90;;;;;;4141261;28;20040;-73
2023/11/01 08:28:34;;;;;;;9.35;1.98;;;13.50;99.90;;;;;;4142714;28;20052;-73
2023/11/01 08:30:34;;;;;;;5.25;1.88;;;13.60;99.90;;;;;;4130760;28;20503;-73
2023/11/01 08:32:36;;;;;;;10.85;2.00;;;13.60;99.90;;;;;;4128165;28;20034;-73
2023/11/01 08:34:37;;;;;;;6.88;1.65;;;13.70;99.90;;;;;;4129092;28;20467;-74
2023/11/01 08:36:37;;;;;;;5.10;1.92;;;13.80;99.90;;;;;;4126369;28;20373;-74
2023/11/01 08:38:38;;;;;;;6.18;1.85;;;13.80;99.90;;;;;;4126761;28;20041;-74
2023/11/01 08:40:38;;;;;;;6.50;1.67;;;13.80;99.90;;;;;;4125286;28;20168;-74
2023/11/01 08:42:40;;;;;;;7.05;1.95;;;13.90;99.90;;;;;;4127674;28;20454;-74
2023/11/01 08:44:40;;;;;;;8.90;1.92;;;13.80;99.90;;;;;;4127717;28;20034;-73
2023/11/01 08:46:41;;;;;;;5.07;1.65;;;13.90;99.90;;;;;;4132184;28;20097;-74
2023/11/01 08:48:42;;;;;;;4.40;1.50;;;13.90;99.90;;;;;;4124516;28;21726;-74
2023/11/01 08:50:42;;;;;;;4.75;1.60;;;13.90;99.90;;;;;;4108874;28;20808;-73
2023/11/01 08:52:44;;;;;;;6.80;1.58;;;13.90;99.90;;;;;;4112590;28;20042;-73
2023/11/01 08:54:45;;;;;;;6.85;1.33;;;13.90;99.90;;;;;;4121419;28;20403;-73
2023/11/01 08:56:45;;;;;;;6.90;1.58;;;13.90;99.90;;;;;;4126945;28;20050;-73
2023/11/01 08:58:46;;;;;;;5.03;1.58;;;13.90;99.90;;;;;;4127830;28;20038;-74
2023/11/01 09:00:47;;;;;;;5.43;1.65;;;13.90;99.90;;;;;;4118228;28;20049;-73
2023/11/01 09:02:47;;;;;;;5.20;1.85;;;13.90;99.90;;;;;;4125209;28;20057;-73
2023/11/01 09:04:48;;;;;;;5.45;1.73;;;13.90;99.90;;;;;;4110010;28;20034;-73
2023/11/01 09:06:48;;;;;;;6.85;1.60;;;13.90;99.90;;;;;;4125203;28;20062;-73
2023/11/01 09:08:49;;;;;;;5.85;1.70;;;14.00;99.90;;;;;;4124509;28;20030;-75
2023/11/01 09:10:50;;;;;;;6.47;1.45;;;13.90;99.90;;;;;;4120491;28;20034;-73
2023/11/01 09:12:50;;;;;;;7.53;2.28;;;13.90;99.90;;;;;;4125659;28;20038;-73
2023/11/01 09:14:51;;;;;;;6.22;2.42;;;13.90;99.90;;;;;;4127645;28;20030;-72
2023/11/01 09:16:51;;;;;;;7.75;3.35;;;14.00;99.90;;;;;;4123797;28;20576;-66
2023/11/01 09:18:52;;;;;;;5.13;2.75;;;14.00;99.90;;;;;;4127710;28;20038;-65
2023/11/01 09:20:53;;;;;;;5.57;1.85;;;14.00;99.90;;;;;;4114613;28;20065;-66
2023/11/01 09:22:53;;;;;;;5.85;1.75;;;14.00;99.90;;;;;;4127439;28;20040;-66
2023/11/01 09:24:54;;;;;;;8.70;1.98;;;14.00;99.90;;;;;;4125967;28;20040;-65
2023/11/01 09:26:54;;;;;;;8.48;1.48;;;14.00;99.90;;;;;;4134317;28;20485;-66
2023/11/01 09:28:55;;;;;;;7.55;1.75;;;14.00;99.90;;;;;;4126006;28;20408;-66
2023/11/01 09:30:55;;;;;;;10.80;2.33;;;14.00;99.90;;;;;;4126095;28;20074;-66
2023/11/01 09:32:56;;;;;;;7.32;1.65;;;14.00;99.90;;;;;;4127655;28;20034;-66
2023/11/01 09:34:57;;;;;;;7.00;1.60;;;14.00;99.90;;;;;;4127416;28;20042;-66
2023/11/01 09:36:57;;;;;;;6.53;1.98;;;14.10;99.90;;;;;;4119892;28;20550;-66
2023/11/01 09:38:58;;;;;;;7.60;1.83;;;14.00;99.90;;;;;;4123529;28;20475;-66
2023/11/01 09:41:06;;;;;;;5.63;1.58;;;14.10;99.90;;;;;;4124561;28;20034;-66
2023/11/01 09:43:09;;;;;;;4.30;1.42;;;14.10;99.90;;;;;;4102933;28;20047;-65
2023/11/01 09:45:12;;;;;;;7.70;1.73;;;14.10;99.90;;;;;;4125072;28;20368;-67
2023/11/01 09:47:14;;;;;;;10.18;2.28;;;14.10;99.90;;;;;;4135677;28;20459;-65
2023/11/01 09:49:18;;;;;;;2.65;1.45;;;14.20;99.90;;;;;;4108751;28;20193;-65
2023/11/01 09:51:20;;;;;;;3.72;1.67;;;14.20;99.90;;;;;;4129577;28;20113;-66
2023/11/01 09:53:20;;;;;;;7.82;2.15;;;14.30;99.90;;;;;;4125132;28;20053;-66
2023/11/01 09:55:21;;;;;;;8.05;1.92;;;14.30;99.90;;;;;;4124256;28;20073;-66
2023/11/01 09:57:23;;;;;;;7.00;1.77;;;14.30;99.90;;;;;;4125235;28;20117;-66
2023/11/01 09:59:24;;;;;;;6.20;1.77;;;14.40;99.90;;;;;;4126776;28;20058;-65
2023/11/01 10:01:27;;;;;;;9.77;2.58;;;14.50;99.90;;;;;;4125419;28;20057;-66
2023/11/01 10:03:27;;;;;;;4.05;1.75;;;14.40;99.90;;;;;;4108853;28;20066;-66
2023/11/01 10:05:28;;;;;;;6.97;1.55;;;14.50;99.90;;;;;;4120470;28;20030;-65
2023/11/01 10:07:29;;;;;;;6.13;1.70;;;14.50;99.90;;;;;;4124399;28;20455;-65
2023/11/01 10:09:29;;;;;;;3.15;1.00;;;14.50;99.90;;;;;;4123057;28;20065;-66
2023/11/01 10:11:31;;;;;;;6.65;1.63;;;14.50;99.90;;;;;;4121687;28;20034;-65
2023/11/01 10:13:33;;;;;;;7.88;1.63;;;14.50;99.90;;;;;;4125143;28;20069;-65
2023/11/01 10:15:33;;;;;;;3.30;1.20;;;14.50;99.90;;;;;;4123165;28;20314;-65
2023/11/01 10:17:34;;;;;;;10.35;1.65;;;14.50;99.90;;;;;;4126422;28;20289;-65
2023/11/01 10:19:35;;;;;;;14.27;2.33;;;14.60;99.90;;;;;;4126036;28;20463;-66
2023/11/01 10:21:36;;;;;;;4.32;1.17;;;14.60;99.90;;;;;;4108089;28;20098;-65
2023/11/01 10:23:36;;;;;;;7.03;1.92;;;14.60;99.90;;;;;;4118265;28;20026;-65
2023/11/01 10:25:37;;;;;;;8.18;1.75;;;14.60;99.90;;;;;;4124791;28;20047;-65
2023/11/01 10:27:41;;;;;;;6.72;1.60;;;14.70;99.90;;;;;;4126390;28;20038;-65
2023/11/01 10:29:44;;;;;;;5.90;1.80;;;14.70;99.90;;;;;;4131668;28;20057;-65